Time;durP1;ratioP1;P1;durP2;ratioP2;P2;SDS_P1;SDS_P2;PMS_P1;PMS_P2;Temp;Humidity;BMP_temperature;BMP_pressure;BME280_temperature;BME280_humidity;BME280_pressure;Samples;Min_cycle;Max_cycle;Signal;HPM_P1;HPM_P2
2023/04/06 00:00:25;;;;;;;15.38;8.45;;;;;;;;;;5036252;28;20053;-80
2023/04/06 00:02:52;;;;;;;12.18;7.93;;;;;;;;;;5036061;28;20055;-81
2023/04/06 00:05:20;;;;;;;10.85;7.88;;;;;;;;;;5037141;28;20056;-81
2023/04/06 00:07:46;;;;;;;11.70;8.52;;;;;;;;;;5036310;28;20057;-80
2023/04/06 00:10:13;;;;;;;13.10;8.18;;;;;;;;;;5036417;28;20049;-79
2023/04/06 00:12:40;;;;;;;13.93;7.82;;;;;;;;;;5043395;28;20045;-79
2023/04/06 00:15:08;;;;;;;14.55;8.18;;;;;;;;;;5037623;28;20049;-80
2023/04/06 00:17:36;;;;;;;10.60;8.70;;;;;;;;;;5036853;28;20053;-81
2023/04/06 00:20:03;;;;;;;11.18;8.05;;;;;;;;;;5037372;28;20642;-81
2023/04/06 00:22:29;;;;;;;13.13;7.60;;;;;;;;;;5040205;28;20037;-79
2023/04/06 00:24:56;;;;;;;12.02;8.10;;;;;;;;;;5045799;28;20072;-78
2023/04/06 00:27:23;;;;;;;11.93;7.63;;;;;;;;;;5041289;28;20072;-79
2023/04/06 00:29:50;;;;;;;13.55;8.45;;;;;;;;;;5032681;28;20081;-78
2023/04/06 00:32:16;;;;;;;11.25;8.63;;;;;;;;;;5032478;28;20109;-78
2023/04/06 00:34:45;;;;;;;13.10;8.43;;;;;;;;;;5032292;28;20077;-79
2023/04/06 00:37:14;;;;;;;13.73;7.72;;;;;;;;;;5032916;28;20061;-78
2023/04/06 00:39:41;;;;;;;11.75;8.27;;;;;;;;;;5032373;28;20041;-78
2023/04/06 00:42:12;;;;;;;13.73;8.32;;;;;;;;;;5035079;28;20045;-79
2023/04/06 00:44:39;;;;;;;12.57;7.80;;;;;;;;;;5037382;28;20050;-79
2023/04/06 00:47:06;;;;;;;14.20;7.97;;;;;;;;;;5036823;28;20089;-79
2023/04/06 00:49:33;;;;;;;10.75;8.00;;;;;;;;;;5032924;28;20052;-79
2023/04/06 00:52:02;;;;;;;12.77;8.27;;;;;;;;;;5032648;28;20072;-80
2023/04/06 00:54:29;;;;;;;12.02;8.23;;;;;;;;;;5032805;28;20512;-79
2023/04/06 00:56:56;;;;;;;14.23;9.13;;;;;;;;;;5036303;28;20111;-78
2023/04/06 00:59:23;;;;;;;13.88;8.45;;;;;;;;;;5036571;28;20475;-78
2023/04/06 01:01:50;;;;;;;11.55;8.88;;;;;;;;;;5036759;28;20088;-77
2023/04/06 01:04:17;;;;;;;12.15;8.48;;;;;;;;;;5036039;28;20160;-78
2023/04/06 01:06:43;;;;;;;12.63;8.38;;;;;;;;;;5036097;28;20041;-78
2023/04/06 01:09:11;;;;;;;14.07;9.20;;;;;;;;;;5036058;28;20045;-78
2023/04/06 01:11:38;;;;;;;17.08;10.25;;;;;;;;;;5035859;28;20077;-78
2023/04/06 01:14:05;;;;;;;12.90;9.77;;;;;;;;;;5035753;28;20057;-79
2023/04/06 01:16:32;;;;;;;14.48;9.90;;;;;;;;;;5035895;28;20133;-78
2023/04/06 01:18:59;;;;;;;16.33;11.30;;;;;;;;;;5035821;28;20077;-79
2023/04/06 01:21:26;;;;;;;17.70;10.80;;;;;;;;;;5035676;28;20124;-78
2023/04/06 01:23:54;;;;;;;15.02;10.50;;;;;;;;;;5035287;28;20052;-77
2023/04/06 01:26:21;;;;;;;14.88;11.10;;;;;;;;;;5035630;28;20050;-78
2023/04/06 01:28:47;;;;;;;20.30;11.35;;;;;;;;;;5036038;28;20088;-77
2023/04/06 01:31:14;;;;;;;16.45;10.68;;;;;;;;;;5035164;28;20508;-79
2023/04/06 01:33:41;;;;;;;15.82;10.35;;;;;;;;;;5034854;28;20072;-78
2023/04/06 01:36:08;;;;;;;19.50;12.18;;;;;;;;;;5034582;28;20085;-79
2023/04/06 01:38:35;;;;;;;14.80;10.75;;;;;;;;;;5036140;28;20045;-78
2023/04/06 01:41:03;;;;;;;16.50;11.05;;;;;;;;;;5036776;28;20064;-79
2023/04/06 01:43:30;;;;;;;16.08;11.20;;;;;;;;;;5026342;28;20164;-78
2023/04/06 01:45:57;;;;;;;16.25;11.05;;;;;;;;;;5041936;28;20046;-80
2023/04/06 01:48:24;;;;;;;18.10;11.07;;;;;;;;;;5043191;28;20058;-80
2023/04/06 01:50:51;;;;;;;18.20;12.23;;;;;;;;;;5043926;28;20049;-78
2023/04/06 01:53:17;;;;;;;14.52;10.48;;;;;;;;;;5038465;28;20087;-78
2023/04/06 01:55:44;;;;;;;15.05;10.25;;;;;;;;;;5038045;28;20061;-80
2023/04/06 01:58:13;;;;;;;15.63;10.13;;;;;;;;;;5042524;28;20184;-80
2023/04/06 02:00:40;;;;;;;14.32;10.55;;;;;;;;;;5041550;28;20049;-79
2023/04/06 02:03:07;;;;;;;15.55;10.20;;;;;;;;;;5041517;28;20049;-80
2023/04/06 02:05:37;;;;;;;16.65;10.77;;;;;;;;;;5041451;28;20084;-79
2023/04/06 02:08:04;;;;;;;17.95;10.48;;;;;;;;;;5040643;28;20053;-79
2023/04/06 02:10:31;;;;;;;19.63;11.05;;;;;;;;;;5041289;28;20053;-79
2023/04/06 02:12:58;;;;;;;16.90;10.40;;;;;;;;;;5037110;28;20428;-78
2023/04/06 02:15:26;;;;;;;19.00;10.90;;;;;;;;;;5034010;28;20052;-77
2023/04/06 02:17:53;;;;;;;17.15;10.38;;;;;;;;;;5034318;28;20046;-77
2023/04/06 02:20:20;;;;;;;15.95;11.10;;;;;;;;;;5038861;28;20073;-79
2023/04/06 02:22:47;;;;;;;16.15;10.82;;;;;;;;;;5039948;28;20051;-78
2023/04/06 02:25:13;;;;;;;16.67;10.43;;;;;;;;;;5034401;28;20107;-78
2023/04/06 02:27:40;;;;;;;15.60;10.38;;;;;;;;;;5034185;28;20128;-78
2023/04/06 02:30:08;;;;;;;17.58;10.75;;;;;;;;;;5034092;28;20041;-77
2023/04/06 02:32:36;;;;;;;12.63;9.32;;;;;;;;;;5033650;28;20080;-78
2023/04/06 02:35:03;;;;;;;15.40;9.52;;;;;;;;;;5033755;28;20076;-78
2023/04/06 02:37:29;;;;;;;16.15;9.82;;;;;;;;;;5033477;28;20084;-78
2023/04/06 02:39:56;;;;;;;13.63;9.75;;;;;;;;;;5034244;28;20049;-79
2023/04/06 02:42:23;;;;;;;15.50;10.27;;;;;;;;;;5034399;28;20050;-78
2023/04/06 02:44:49;;;;;;;14.82;10.25;;;;;;;;;;5034585;28;20080;-77
2023/04/06 02:47:16;;;;;;;15.80;9.63;;;;;;;;;;5034870;28;20085;-79
2023/04/06 02:49:44;;;;;;;14.85;9.57;;;;;;;;;;5035224;28;20080;-79
2023/04/06 02:52:11;;;;;;;15.60;9.55;;;;;;;;;;5035699;28;20069;-79
2023/04/06 02:54:38;;;;;;;17.27;9.63;;;;;;;;;;5035454;28;20080;-78
2023/04/06 02:57:05;;;;;;;14.73;9.70;;;;;;;;;;5052075;28;20076;-79
2023/04/06 02:59:32;;;;;;;13.65;9.00;;;;;;;;;;5055093;28;20106;-79
2023/04/06 03:01:58;;;;;;;14.25;9.07;;;;;;;;;;5055211;28;20072;-80
2023/04/06 03:04:25;;;;;;;12.85;9.02;;;;;;;;;;5054589;28;20447;-78
2023/04/06 03:06:55;;;;;;;14.13;9.82;;;;;;;;;;5055443;28;20479;-78
2023/04/06 03:09:22;;;;;;;16.02;10.45;;;;;;;;;;5055312;28;20092;-78
2023/04/06 03:11:48;;;;;;;14.77;9.40;;;;;;;;;;5054405;28;20052;-77
2023/04/06 03:14:17;;;;;;;14.02;9.15;;;;;;;;;;5054470;28;20055;-79
2023/04/06 03:16:43;;;;;;;16.98;9.10;;;;;;;;;;5056040;28;20045;-78
2023/04/06 03:19:10;;;;;;;14.15;9.55;;;;;;;;;;5060201;28;20151;-78
2023/04/06 03:21:37;;;;;;;15.85;9.38;;;;;;;;;;5062344;28;20048;-79
2023/04/06 03:24:05;;;;;;;13.00;9.02;;;;;;;;;;5055265;28;20534;-79
2023/04/06 03:26:32;;;;;;;15.13;9.65;;;;;;;;;;5037440;28;20061;-79
2023/04/06 03:28:59;;;;;;;16.02;9.88;;;;;;;;;;5034866;28;20081;-78
2023/04/06 03:31:26;;;;;;;18.80;10.77;;;;;;;;;;5036046;28;20512;-80
2023/04/06 03:33:53;;;;;;;16.42;10.68;;;;;;;;;;5035509;28;20088;-79
2023/04/06 03:36:20;;;;;;;17.67;11.00;;;;;;;;;;5035769;28;20084;-79
2023/04/06 03:38:47;;;;;;;16.40;11.00;;;;;;;;;;5035472;28;20045;-79
2023/04/06 03:41:15;;;;;;;16.42;10.68;;;;;;;;;;5035622;28;20068;-79
2023/04/06 03:43:41;;;;;;;18.02;10.98;;;;;;;;;;5035565;28;20080;-79
2023/04/06 03:46:08;;;;;;;24.75;11.95;;;;;;;;;;5035777;28;20079;-79
2023/04/06 03:48:35;;;;;;;17.15;10.95;;;;;;;;;;5035676;28;20095;-79
2023/04/06 03:51:01;;;;;;;17.13;10.77;;;;;;;;;;5035748;28;20073;-78
2023/04/06 03:53:28;;;;;;;17.55;10.73;;;;;;;;;;5035492;28;20083;-79
2023/04/06 03:55:55;;;;;;;18.42;11.43;;;;;;;;;;5034556;28;20535;-78
2023/04/06 03:58:23;;;;;;;17.63;11.05;;;;;;;;;;5032358;28;20064;-78
2023/04/06 04:00:49;;;;;;;15.15;10.85;;;;;;;;;;5032602;28;20041;-78
2023/04/06 04:03:16;;;;;;;17.98;11.20;;;;;;;;;;5032324;28;20052;-77
2023/04/06 04:05:43;;;;;;;18.33;11.77;;;;;;;;;;5032795;28;20049;-77
2023/04/06 04:08:10;;;;;;;14.80;10.52;;;;;;;;;;5032236;28;20049;-78
2023/04/06 04:10:37;;;;;;;16.50;10.07;;;;;;;;;;5032795;28;20077;-79
2023/04/06 04:13:04;;;;;;;19.75;11.38;;;;;;;;;;5032755;28;20046;-80
2023/04/06 04:15:32;;;;;;;17.25;10.90;;;;;;;;;;5033110;28;20072;-79
2023/04/06 04:17:59;;;;;;;16.33;10.45;;;;;;;;;;5032531;28;20508;-77
2023/04/06 04:20:25;;;;;;;16.30;10.98;;;;;;;;;;5033088;28;20080;-78
2023/04/06 04:22:52;;;;;;;20.70;12.68;;;;;;;;;;5032695;28;20100;-79
2023/04/06 04:25:19;;;;;;;18.73;12.30;;;;;;;;;;5032457;28;20535;-78
2023/04/06 04:27:45;;;;;;;17.95;12.50;;;;;;;;;;5032895;28;20631;-78
2023/04/06 04:30:12;;;;;;;21.00;12.70;;;;;;;;;;5032391;28;20042;-79
2023/04/06 04:32:40;;;;;;;18.55;12.07;;;;;;;;;;5032749;28;20069;-79
2023/04/06 04:35:08;;;;;;;20.05;12.07;;;;;;;;;;5032246;28;20132;-79
2023/04/06 04:37:35;;;;;;;21.08;13.30;;;;;;;;;;5032676;28;20041;-79
2023/04/06 04:40:02;;;;;;;22.13;13.15;;;;;;;;;;5032757;28;20071;-78
2023/04/06 04:42:29;;;;;;;21.15;13.23;;;;;;;;;;5032819;28;20136;-79
2023/04/06 04:44:56;;;;;;;19.30;13.07;;;;;;;;;;5032500;28;20451;-79
2023/04/06 04:47:22;;;;;;;25.02;13.25;;;;;;;;;;5032554;28;20128;-78
2023/04/06 04:49:50;;;;;;;27.85;14.68;;;;;;;;;;5032502;28;20140;-77
2023/04/06 04:52:17;;;;;;;19.27;12.20;;;;;;;;;;5032675;28;20467;-78
2023/04/06 04:54:44;;;;;;;20.15;12.55;;;;;;;;;;5032201;28;20080;-78
2023/04/06 04:57:10;;;;;;;23.63;13.45;;;;;;;;;;5033115;28;20072;-78
2023/04/06 04:59:37;;;;;;;23.23;11.73;;;;;;;;;;5034758;28;20086;-79
2023/04/06 05:02:04;;;;;;;22.70;12.48;;;;;;;;;;5037936;28;20049;-79
2023/04/06 05:04:30;;;;;;;20.23;12.23;;;;;;;;;;5037601;28;20081;-79
2023/04/06 05:07:06;;;;;;;19.83;12.02;;;;;;;;;;5038289;28;20085;-79
2023/04/06 05:09:33;;;;;;;18.73;11.23;;;;;;;;;;5038529;28;20080;-79
2023/04/06 05:11:59;;;;;;;14.25;9.57;;;;;;;;;;5039186;28;20045;-80
2023/04/06 05:14:26;;;;;;;13.73;9.93;;;;;;;;;;5035838;28;20077;-78
2023/04/06 05:16:53;;;;;;;17.88;10.18;;;;;;;;;;5034475;28;20077;-79
2023/04/06 05:19:20;;;;;;;19.00;9.05;;;;;;;;;;5036475;28;20081;-79
2023/04/06 05:21:47;;;;;;;14.40;9.02;;;;;;;;;;5035408;28;20481;-78
2023/04/06 05:24:15;;;;;;;13.98;10.07;;;;;;;;;;5034066;28;20077;-79
2023/04/06 05:26:42;;;;;;;15.32;9.93;;;;;;;;;;5033957;28;20084;-79
2023/04/06 05:29:09;;;;;;;16.08;9.63;;;;;;;;;;5033812;28;20120;-79
2023/04/06 05:31:35;;;;;;;13.10;9.65;;;;;;;;;;5033823;28;20050;-79
2023/04/06 05:34:02;;;;;;;15.50;9.68;;;;;;;;;;5033316;28;20084;-78
2023/04/06 05:36:30;;;;;;;14.75;9.35;;;;;;;;;;5033769;28;20084;-79
2023/04/06 05:38:56;;;;;;;14.15;9.65;;;;;;;;;;5034175;28;20063;-79
2023/04/06 05:41:26;;;;;;;15.68;9.65;;;;;;;;;;5034108;28;20064;-79
2023/04/06 05:43:52;;;;;;;15.15;9.65;;;;;;;;;;5036552;28;20053;-79
2023/04/06 05:46:19;;;;;;;14.20;9.32;;;;;;;;;;5036653;28;20519;-79
2023/04/06 05:48:46;;;;;;;13.20;8.88;;;;;;;;;;5036859;28;20053;-80
2023/04/06 05:51:13;;;;;;;13.60;9.25;;;;;;;;;;5036736;28;20432;-79
2023/04/06 05:53:39;;;;;;;15.95;9.85;;;;;;;;;;5036087;28;20539;-79
2023/04/06 05:56:06;;;;;;;12.77;8.73;;;;;;;;;;5036722;28;20080;-79
2023/04/06 05:58:34;;;;;;;12.82;8.80;;;;;;;;;;5036815;28;20081;-78
2023/04/06 06:01:02;;;;;;;15.07;9.40;;;;;;;;;;5036100;28;20092;-79
2023/04/06 06:03:29;;;;;;;15.57;10.40;;;;;;;;;;5036623;28;20049;-79
2023/04/06 06:06:00;;;;;;;11.63;8.32;;;;;;;;;;5037005;28;20045;-79
2023/04/06 06:08:27;;;;;;;13.95;9.73;;;;;;;;;;5039072;28;20136;-79
2023/04/06 06:10:54;;;;;;;14.07;9.80;;;;;;;;;;5036383;28;20455;-79
2023/04/06 06:13:20;;;;;;;16.08;10.05;;;;;;;;;;5036365;28;20077;-78
2023/04/06 06:15:49;;;;;;;13.20;9.15;;;;;;;;;;5037466;28;20059;-79
2023/04/06 06:18:15;;;;;;;14.98;9.82;;;;;;;;;;5039073;28;20056;-79
2023/04/06 06:20:42;;;;;;;13.55;9.25;;;;;;;;;;5039456;28;20076;-79
2023/04/06 06:23:09;;;;;;;13.88;9.35;;;;;;;;;;5036754;28;20045;-79
2023/04/06 06:25:35;;;;;;;15.30;9.20;;;;;;;;;;5036498;28;20517;-79
2023/04/06 06:28:02;;;;;;;14.52;9.50;;;;;;;;;;5036232;28;20096;-79
2023/04/06 06:30:29;;;;;;;16.88;9.77;;;;;;;;;;5036231;28;20099;-79
2023/04/06 06:32:57;;;;;;;14.25;9.32;;;;;;;;;;5036098;28;20050;-79
2023/04/06 06:35:24;;;;;;;15.43;9.98;;;;;;;;;;5035822;28;20081;-79
2023/04/06 06:37:51;;;;;;;15.57;9.32;;;;;;;;;;5036171;28;20134;-79
2023/04/06 06:40:17;;;;;;;14.45;9.65;;;;;;;;;;5036113;28;20128;-79
2023/04/06 06:42:44;;;;;;;15.98;9.43;;;;;;;;;;5036045;28;20041;-79
2023/04/06 06:45:11;;;;;;;12.57;8.73;;;;;;;;;;5033098;28;20041;-79
2023/04/06 06:47:38;;;;;;;15.00;8.95;;;;;;;;;;5035766;28;20076;-79
2023/04/06 06:50:07;;;;;;;13.48;8.93;;;;;;;;;;5036103;28;20077;-79
2023/04/06 06:52:34;;;;;;;14.95;9.45;;;;;;;;;;5028233;28;20072;-79
2023/04/06 06:55:01;;;;;;;15.15;9.18;;;;;;;;;;5035547;28;20070;-79
2023/04/06 06:57:29;;;;;;;17.38;9.95;;;;;;;;;;5035654;28;20103;-78
2023/04/06 06:59:55;;;;;;;15.05;9.57;;;;;;;;;;5035649;28;20049;-77
2023/04/06 07:02:22;;;;;;;12.68;9.75;;;;;;;;;;5034669;28;20045;-78
2023/04/06 07:04:49;;;;;;;15.55;10.00;;;;;;;;;;5035916;28;20092;-78
2023/04/06 07:07:17;;;;;;;13.15;9.40;;;;;;;;;;5036695;28;20051;-78
2023/04/06 07:09:44;;;;;;;15.75;9.70;;;;;;;;;;5038337;28;20045;-78
2023/04/06 07:12:10;;;;;;;15.45;10.38;;;;;;;;;;5038269;28;20443;-78
2023/04/06 07:14:37;;;;;;;16.15;10.65;;;;;;;;;;5038325;28;20050;-78
2023/04/06 07:17:04;;;;;;;15.95;10.00;;;;;;;;;;5038845;28;20086;-78
2023/04/06 07:19:31;;;;;;;13.93;9.73;;;;;;;;;;5039989;28;20496;-78
2023/04/06 07:21:59;;;;;;;13.57;8.80;;;;;;;;;;5039349;28;20093;-78
2023/04/06 07:24:27;;;;;;;13.95;9.68;;;;;;;;;;5036154;28;20068;-78
2023/04/06 07:26:54;;;;;;;13.43;9.30;;;;;;;;;;5036288;28;20132;-78
2023/04/06 07:29:20;;;;;;;14.13;9.90;;;;;;;;;;5036613;28;20053;-78
2023/04/06 07:31:48;;;;;;;12.38;9.18;;;;;;;;;;5033893;28;20076;-79
2023/04/06 07:34:15;;;;;;;14.07;10.10;;;;;;;;;;5033181;28;20045;-78
2023/04/06 07:36:42;;;;;;;13.68;9.10;;;;;;;;;;5033801;28;20049;-80
2023/04/06 07:39:09;;;;;;;14.13;9.35;;;;;;;;;;5032841;28;20049;-79
2023/04/06 07:41:37;;;;;;;13.52;9.38;;;;;;;;;;5033350;28;20088;-79
2023/04/06 07:44:05;;;;;;;16.00;9.23;;;;;;;;;;5032875;28;20077;-79
2023/04/06 07:46:32;;;;;;;14.63;8.90;;;;;;;;;;5035819;28;20042;-78
2023/04/06 07:49:00;;;;;;;17.52;9.43;;;;;;;;;;5050466;28;20041;-78
2023/04/06 07:51:27;;;;;;;13.70;8.45;;;;;;;;;;5044935;28;20025;-77
2023/04/06 07:53:54;;;;;;;14.82;9.57;;;;;;;;;;5035918;28;20109;-77
2023/04/06 07:56:21;;;;;;;14.77;9.15;;;;;;;;;;5035311;28;20057;-79
2023/04/06 07:58:49;;;;;;;14.50;9.88;;;;;;;;;;5032112;28;20105;-76
2023/04/06 08:01:16;;;;;;;11.68;8.23;;;;;;;;;;5031266;28;20095;-77
2023/04/06 08:03:43;;;;;;;16.30;8.90;;;;;;;;;;5045995;28;20561;-77
2023/04/06 08:06:09;;;;;;;13.00;8.82;;;;;;;;;;5052443;28;20072;-78
2023/04/06 08:08:36;;;;;;;13.20;9.13;;;;;;;;;;5053104;28;20045;-78
2023/04/06 08:11:03;;;;;;;13.98;9.18;;;;;;;;;;5039878;28;20041;-77
2023/04/06 08:13:30;;;;;;;15.50;8.98;;;;;;;;;;5032258;28;20057;-78
2023/04/06 08:16:01;;;;;;;14.15;9.40;;;;;;;;;;5031433;28;20076;-78
2023/04/06 08:18:29;;;;;;;13.27;9.38;;;;;;;;;;5032508;28;20046;-77
2023/04/06 08:20:56;;;;;;;16.17;9.10;;;;;;;;;;5034547;28;20052;-78
2023/04/06 08:23:23;;;;;;;14.35;9.43;;;;;;;;;;5034487;28;20053;-77
2023/04/06 08:25:50;;;;;;;13.00;8.85;;;;;;;;;;5033233;28;20038;-77
2023/04/06 08:28:17;;;;;;;13.82;9.07;;;;;;;;;;5033776;28;20115;-78
2023/04/06 08:30:44;;;;;;;15.13;8.90;;;;;;;;;;5034279;28;20089;-78
2023/04/06 08:33:12;;;;;;;15.10;9.95;;;;;;;;;;5033827;28;20081;-78
2023/04/06 08:35:39;;;;;;;14.55;9.13;;;;;;;;;;5034200;28;20052;-77
2023/04/06 08:38:06;;;;;;;14.13;8.77;;;;;;;;;;5032981;28;20049;-78
2023/04/06 08:40:37;;;;;;;12.90;9.82;;;;;;;;;;5030884;28;20132;-77
2023/04/06 08:43:08;;;;;;;14.35;9.18;;;;;;;;;;5045322;28;20076;-77
2023/04/06 08:45:35;;;;;;;13.82;8.57;;;;;;;;;;5031428;28;20077;-77
2023/04/06 08:48:03;;;;;;;14.25;9.88;;;;;;;;;;5030614;28;20500;-76
2023/04/06 08:50:33;;;;;;;15.07;8.80;;;;;;;;;;5031715;28;20065;-77
2023/04/06 08:53:02;;;;;;;14.30;9.40;;;;;;;;;;5032890;28;20085;-77
2023/04/06 08:55:32;;;;;;;13.18;9.30;;;;;;;;;;5030800;28;20823;-77
2023/04/06 08:58:00;;;;;;;12.60;8.35;;;;;;;;;;5031733;28;20079;-77
2023/04/06 09:00:29;;;;;;;17.33;10.00;;;;;;;;;;5031978;28;20045;-77
2023/04/06 09:02:58;;;;;;;12.98;9.63;;;;;;;;;;5030936;28;20456;-77
2023/04/06 09:05:26;;;;;;;11.75;8.45;;;;;;;;;;5030223;28;20073;-77
2023/04/06 09:07:55;;;;;;;13.27;9.50;;;;;;;;;;5030446;28;20420;-77
2023/04/06 09:10:23;;;;;;;12.50;8.73;;;;;;;;;;5029887;28;20054;-77
2023/04/06 09:13:03;;;;;;;13.30;9.43;;;;;;;;;;5032011;28;20560;-77
2023/04/06 09:15:30;;;;;;;12.77;9.27;;;;;;;;;;5035601;28;20049;-77
2023/04/06 09:17:56;;;;;;;13.15;9.20;;;;;;;;;;5039151;28;20042;-77
2023/04/06 09:20:25;;;;;;;14.98;9.75;;;;;;;;;;5035996;28;20045;-77
2023/04/06 09:22:53;;;;;;;15.07;10.07;;;;;;;;;;5037016;28;20051;-77
2023/04/06 09:25:22;;;;;;;15.75;9.40;;;;;;;;;;5042135;28;20045;-77
2023/04/06 09:28:00;;;;;;;16.70;9.77;;;;;;;;;;5042923;28;20551;-77
2023/04/06 09:30:27;;;;;;;16.77;9.60;;;;;;;;;;5038609;28;20472;-78
2023/04/06 09:32:55;;;;;;;15.73;9.55;;;;;;;;;;5036740;28;20084;-78
2023/04/06 09:35:22;;;;;;;14.32;9.93;;;;;;;;;;5036743;28;20111;-77
2023/04/06 09:37:50;;;;;;;18.20;9.80;;;;;;;;;;5036760;28;20088;-77
2023/04/06 09:40:20;;;;;;;12.32;9.60;;;;;;;;;;5037137;28;20049;-77
2023/04/06 09:42:49;;;;;;;15.65;10.13;;;;;;;;;;5036679;28;20045;-77
2023/04/06 09:45:16;;;;;;;15.13;10.18;;;;;;;;;;5036940;28;20060;-77
2023/04/06 09:47:45;;;;;;;14.48;8.98;;;;;;;;;;5036359;28;20536;-77
2023/04/06 09:50:12;;;;;;;15.18;9.77;;;;;;;;;;5036590;28;20144;-77
2023/04/06 09:52:43;;;;;;;16.25;10.10;;;;;;;;;;5035340;28;20057;-77
2023/04/06 09:55:10;;;;;;;16.73;9.77;;;;;;;;;;5016371;28;20084;-77
2023/04/06 09:57:46;;;;;;;15.45;9.57;;;;;;;;;;5017392;28;20053;-78
2023/04/06 10:00:18;;;;;;;15.95;10.45;;;;;;;;;;5036096;28;20179;-78
2023/04/06 10:02:51;;;;;;;18.63;10.25;;;;;;;;;;5016757;28;20046;-77
2023/04/06 10:05:23;;;;;;;17.25;10.45;;;;;;;;;;5015892;28;20046;-76
2023/04/06 10:07:55;;;;;;;15.82;10.25;;;;;;;;;;5015000;28;20052;-76
2023/04/06 10:10:22;;;;;;;16.63;9.40;;;;;;;;;;5013120;28;20137;-77
2023/04/06 10:12:50;;;;;;;14.82;9.75;;;;;;;;;;5013408;28;20129;-77
2023/04/06 10:15:17;;;;;;;14.70;9.90;;;;;;;;;;5014672;28;20537;-77
2023/04/06 10:17:44;;;;;;;17.23;11.38;;;;;;;;;;5015045;28;20050;-77
2023/04/06 10:20:17;;;;;;;13.63;9.35;;;;;;;;;;5033211;28;20125;-77
2023/04/06 10:22:52;;;;;;;15.40;9.43;;;;;;;;;;5034252;28;20085;-77
2023/04/06 10:25:27;;;;;;;16.20;9.88;;;;;;;;;;5033928;28;20046;-77
2023/04/06 10:28:01;;;;;;;17.25;9.68;;;;;;;;;;5031525;28;20186;-77
2023/04/06 10:30:29;;;;;;;15.85;10.05;;;;;;;;;;5033911;28;20052;-77
2023/04/06 10:32:56;;;;;;;15.43;10.18;;;;;;;;;;5031885;28;20570;-77
2023/04/06 10:35:23;;;;;;;16.20;10.07;;;;;;;;;;5035791;28;20107;-77
2023/04/06 10:38:02;;;;;;;15.25;9.82;;;;;;;;;;5036807;28;20654;-77
2023/04/06 10:40:31;;;;;;;14.30;9.57;;;;;;;;;;5040762;28;20057;-77
2023/04/06 10:43:10;;;;;;;14.18;9.10;;;;;;;;;;5044004;28;20045;-78
2023/04/06 10:45:37;;;;;;;15.50;9.80;;;;;;;;;;5032568;28;20111;-76
2023/04/06 10:48:13;;;;;;;13.02;9.18;;;;;;;;;;5032014;28;20536;-76
2023/04/06 10:50:41;;;;;;;14.32;9.32;;;;;;;;;;5031696;28;20073;-77
2023/04/06 10:53:07;;;;;;;14.55;9.80;;;;;;;;;;5031234;28;20041;-76
2023/04/06 10:55:35;;;;;;;13.10;9.15;;;;;;;;;;5031092;28;20080;-76
2023/04/06 10:58:02;;;;;;;15.68;9.75;;;;;;;;;;5031283;28;20095;-76
2023/04/06 11:00:30;;;;;;;14.35;9.85;;;;;;;;;;5030843;28;20527;-76
2023/04/06 11:03:00;;;;;;;14.95;10.18;;;;;;;;;;5030580;28;20073;-76
2023/04/06 11:05:27;;;;;;;14.27;9.43;;;;;;;;;;5032448;28;20056;-76
2023/04/06 11:07:54;;;;;;;14.07;9.80;;;;;;;;;;5031084;28;20077;-77
2023/04/06 11:10:23;;;;;;;14.43;8.88;;;;;;;;;;5030881;28;20084;-77
2023/04/06 11:12:54;;;;;;;14.18;9.32;;;;;;;;;;5030555;28;20420;-76
2023/04/06 11:15:21;;;;;;;21.73;11.75;;;;;;;;;;5031022;28;20085;-77
2023/04/06 11:17:50;;;;;;;14.68;9.93;;;;;;;;;;5030647;28;20672;-76
2023/04/06 11:20:17;;;;;;;16.90;11.13;;;;;;;;;;5030877;28;20527;-76
2023/04/06 11:22:52;;;;;;;22.30;12.10;;;;;;;;;;5030465;28;20056;-76
2023/04/06 11:25:21;;;;;;;14.85;9.82;;;;;;;;;;5030183;28;20081;-78
2023/04/06 11:27:49;;;;;;;14.77;10.15;;;;;;;;;;5036148;22;20125;-81
2023/04/06 11:30:16;;;;;;;16.27;10.65;;;;;;;;;;5033113;28;20037;-79
2023/04/06 11:32:43;;;;;;;16.55;10.98;;;;;;;;;;5043176;28;20048;-81
2023/04/06 11:35:20;;;;;;;15.88;10.13;;;;;;;;;;5037855;28;20053;-81
2023/04/06 11:37:46;;;;;;;16.05;10.52;;;;;;;;;;5036423;28;20045;-81
2023/04/06 11:40:13;;;;;;;17.42;10.73;;;;;;;;;;5036205;28;20107;-83
2023/04/06 11:42:40;;;;;;;15.93;10.60;;;;;;;;;;5032619;28;20504;-81
2023/04/06 11:45:09;;;;;;;13.95;9.95;;;;;;;;;;5034904;28;20041;-80
2023/04/06 11:47:37;;;;;;;13.80;9.52;;;;;;;;;;5032796;28;20049;-82
2023/04/06 11:50:08;;;;;;;14.05;9.70;;;;;;;;;;5036151;28;20141;-82
2023/04/06 11:52:42;;;;;;;17.25;9.90;;;;;;;;;;5019140;28;20049;-80
2023/04/06 11:55:14;;;;;;;14.48;9.23;;;;;;;;;;5014533;28;20046;-80
2023/04/06 11:57:41;;;;;;;14.32;10.20;;;;;;;;;;5023291;28;20061;-82
2023/04/06 12:00:09;;;;;;;16.30;9.85;;;;;;;;;;5033081;28;20049;-82
2023/04/06 12:02:36;;;;;;;12.98;9.20;;;;;;;;;;5028816;28;20383;-80
2023/04/06 12:05:05;;;;;;;14.80;10.00;;;;;;;;;;5016281;28;20477;-83
2023/04/06 12:07:32;;;;;;;15.95;10.07;;;;;;;;;;5015598;28;20060;-82
2023/04/06 12:10:02;;;;;;;14.95;9.63;;;;;;;;;;5016072;28;20049;-81
2023/04/06 12:12:29;;;;;;;12.85;8.85;;;;;;;;;;5015602;28;20050;-83
2023/04/06 12:14:56;;;;;;;12.23;8.23;;;;;;;;;;5017219;28;20519;-84
2023/04/06 12:17:24;;;;;;;11.85;7.88;;;;;;;;;;5017340;28;20515;-83
2023/04/06 12:19:51;;;;;;;12.07;7.80;;;;;;;;;;5032431;28;20072;-83
2023/04/06 12:22:19;;;;;;;10.00;6.75;;;;;;;;;;5034237;28;20132;-82
2023/04/06 12:24:46;;;;;;;11.13;7.50;;;;;;;;;;5034477;28;20077;-82
2023/04/06 12:27:14;;;;;;;12.05;7.70;;;;;;;;;;5024723;28;20046;-82
2023/04/06 12:29:41;;;;;;;11.18;7.38;;;;;;;;;;5034705;28;20045;-82
2023/04/06 12:32:08;;;;;;;11.55;7.22;;;;;;;;;;5034626;28;20049;-82
2023/04/06 12:34:35;;;;;;;12.90;8.88;;;;;;;;;;5034276;28;20043;-82
2023/04/06 12:37:01;;;;;;;12.52;8.00;;;;;;;;;;5034207;28;20157;-82
2023/04/06 12:39:28;;;;;;;11.98;8.27;;;;;;;;;;5033787;28;20069;-83
2023/04/06 12:41:57;;;;;;;10.57;7.28;;;;;;;;;;5034067;28;20084;-82
2023/04/06 12:44:25;;;;;;;11.40;7.78;;;;;;;;;;5035070;28;20056;-83
2023/04/06 12:46:52;;;;;;;10.25;7.28;;;;;;;;;;5035777;28;20065;-82
2023/04/06 12:49:19;;;;;;;12.82;7.20;;;;;;;;;;5035973;28;20496;-82
2023/04/06 12:51:45;;;;;;;10.38;6.80;;;;;;;;;;5038973;28;20077;-83
2023/04/06 12:54:12;;;;;;;10.65;7.45;;;;;;;;;;5039468;28;20052;-82
2023/04/06 12:56:39;;;;;;;12.20;8.70;;;;;;;;;;5039804;28;20124;-81
2023/04/06 12:59:07;;;;;;;12.48;8.60;;;;;;;;;;5038412;28;20045;-81
2023/04/06 13:01:35;;;;;;;10.70;7.35;;;;;;;;;;5035136;28;20049;-81
2023/04/06 13:04:02;;;;;;;11.57;7.90;;;;;;;;;;5041130;28;20565;-82
2023/04/06 13:06:30;;;;;;;12.68;7.88;;;;;;;;;;5040587;28;20080;-78
2023/04/06 13:08:56;;;;;;;11.73;7.60;;;;;;;;;;5040651;28;20064;-80
2023/04/06 13:11:24;;;;;;;10.35;7.55;;;;;;;;;;5042944;28;20053;-80
2023/04/06 13:13:51;;;;;;;10.77;7.50;;;;;;;;;;5039460;28;20061;-80
2023/04/06 13:16:21;;;;;;;12.32;7.45;;;;;;;;;;5030302;28;20080;-79
2023/04/06 13:18:50;;;;;;;11.50;7.60;;;;;;;;;;5041119;28;20053;-80
2023/04/06 13:21:17;;;;;;;11.32;7.50;;;;;;;;;;5035414;28;20104;-80
2023/04/06 13:23:44;;;;;;;12.48;8.50;;;;;;;;;;5033378;28;20049;-78
2023/04/06 13:26:11;;;;;;;12.30;7.80;;;;;;;;;;5033542;28;20042;-79
2023/04/06 13:28:39;;;;;;;11.90;8.75;;;;;;;;;;5025110;28;20053;-80
2023/04/06 13:31:06;;;;;;;12.60;7.80;;;;;;;;;;5023159;28;20050;-81
2023/04/06 13:33:33;;;;;;;12.90;8.25;;;;;;;;;;5022262;28;20109;-79
2023/04/06 13:36:02;;;;;;;11.65;8.20;;;;;;;;;;5017168;28;20046;-82
2023/04/06 13:38:30;;;;;;;11.23;8.07;;;;;;;;;;5018376;28;20077;-79
2023/04/06 13:40:57;;;;;;;10.32;7.57;;;;;;;;;;5027754;28;20116;-82
2023/04/06 13:43:27;;;;;;;11.75;7.90;;;;;;;;;;5038537;28;20069;-82
2023/04/06 13:45:55;;;;;;;11.10;7.95;;;;;;;;;;5037693;28;20103;-80
2023/04/06 13:48:25;;;;;;;12.27;8.52;;;;;;;;;;5037113;28;20500;-84
2023/04/06 13:50:53;;;;;;;11.90;8.20;;;;;;;;;;5044404;28;20075;-81
2023/04/06 13:53:21;;;;;;;12.30;7.82;;;;;;;;;;5030262;28;20129;-82
2023/04/06 13:55:54;;;;;;;10.90;7.25;;;;;;;;;;5016857;28;20045;-81
2023/04/06 13:58:20;;;;;;;11.55;7.28;;;;;;;;;;5017337;28;20049;-81
2023/04/06 14:00:47;;;;;;;11.77;7.43;;;;;;;;;;5019164;28;20049;-81
2023/04/06 14:03:14;;;;;;;9.38;7.00;;;;;;;;;;5016045;28;20416;-81
2023/04/06 14:05:41;;;;;;;11.43;8.15;;;;;;;;;;5022351;28;20038;-80
2023/04/06 14:08:08;;;;;;;12.57;8.15;;;;;;;;;;5022780;28;20084;-81
2023/04/06 14:10:40;;;;;;;11.85;8.57;;;;;;;;;;5037373;28;20124;-82
2023/04/06 14:13:07;;;;;;;10.02;7.88;;;;;;;;;;5037733;28;20045;-81
2023/04/06 14:15:34;;;;;;;10.50;8.27;;;;;;;;;;5036214;28;20046;-81
2023/04/06 14:18:04;;;;;;;9.85;6.65;;;;;;;;;;5035848;28;20053;-81
2023/04/06 14:20:32;;;;;;;13.55;8.63;;;;;;;;;;5035955;28;20696;-80
2023/04/06 14:23:01;;;;;;;10.70;7.90;;;;;;;;;;5036663;28;20129;-82
2023/04/06 14:25:27;;;;;;;10.63;6.78;;;;;;;;;;5036250;28;20053;-83
2023/04/06 14:27:55;;;;;;;11.35;7.28;;;;;;;;;;5036462;28;20057;-82